createdAt,value
2023-03-31T00:02:13.300Z,9.22
2023-03-31T00:04:52.672Z,9.22
2023-03-31T00:07:24.155Z,9.21
2023-03-31T00:10:03.614Z,9.21
2023-03-31T00:12:33.868Z,9.20
2023-03-31T00:15:00.393Z,9.20
2023-03-31T00:17:26.834Z,9.20
2023-03-31T00:19:53.732Z,9.21
2023-03-31T00:22:22.699Z,9.21
2023-03-31T00:24:49.166Z,9.21
2023-03-31T00:27:15.667Z,9.21
2023-03-31T00:29:43.476Z,9.22
2023-03-31T00:32:10.486Z,9.21
2023-03-31T00:34:37.346Z,9.21
2023-03-31T00:37:04.338Z,9.22
2023-03-31T00:39:35.209Z,9.23
2023-03-31T00:42:03.687Z,9.25
2023-03-31T00:44:33.372Z,9.26
2023-03-31T00:47:21.058Z,9.27
2023-03-31T00:49:51.738Z,9.30
2023-03-31T00:52:32.390Z,9.31
2023-03-31T00:55:04.920Z,9.34
2023-03-31T00:57:37.059Z,9.36
2023-03-31T01:00:17.290Z,9.36
2023-03-31T01:02:58.043Z,9.39
2023-03-31T01:05:39.646Z,9.42
2023-03-31T01:08:07.028Z,9.45
2023-03-31T01:10:41.567Z,9.47
2023-03-31T01:13:10.322Z,9.49
2023-03-31T01:15:38.516Z,9.51
2023-03-31T01:18:10.784Z,9.54
2023-03-31T01:20:40.517Z,9.53
2023-03-31T01:23:28.775Z,9.50
2023-03-31T01:26:20.713Z,9.50
2023-03-31T01:29:03.506Z,9.48
2023-03-31T01:31:36.577Z,9.49
2023-03-31T01:34:34.920Z,9.48
2023-03-31T01:37:14.688Z,9.49
2023-03-31T01:40:22.666Z,9.49
2023-03-31T01:42:52.180Z,9.47
2023-03-31T01:45:22.361Z,9.45
2023-03-31T01:48:04.090Z,9.45
2023-03-31T01:50:36.193Z,9.43
2023-03-31T01:53:16.121Z,9.44
2023-03-31T01:55:49.609Z,9.43
2023-03-31T01:58:20.395Z,9.43
2023-03-31T02:01:01.947Z,9.44
2023-03-31T02:03:33.225Z,9.43
2023-03-31T02:06:08.676Z,9.44
2023-03-31T02:08:41.683Z,9.45
2023-03-31T02:11:08.502Z,9.43
2023-03-31T02:13:38.509Z,9.45
2023-03-31T02:16:09.632Z,9.46
2023-03-31T02:18:38.731Z,9.47
2023-03-31T02:21:08.742Z,9.48
2023-03-31T02:23:38.410Z,9.50
2023-03-31T02:26:13.369Z,9.50
2023-03-31T02:28:40.688Z,9.51
2023-03-31T02:31:25.987Z,9.53
2023-03-31T02:33:53.168Z,9.53
2023-03-31T02:36:21.492Z,9.55
2023-03-31T02:38:53.680Z,9.56
2023-03-31T02:41:20.183Z,9.57
2023-03-31T02:43:46.642Z,9.59
2023-03-31T02:46:13.184Z,9.60
2023-03-31T02:48:46.000Z,9.60
2023-03-31T02:51:34.041Z,9.62
2023-03-31T02:54:24.553Z,9.61
2023-03-31T02:57:16.399Z,9.62
2023-03-31T02:59:45.848Z,9.61
2023-03-31T03:02:37.627Z,9.60
2023-03-31T03:05:20.052Z,9.59
2023-03-31T03:08:56.102Z,9.57
2023-03-31T03:11:51.670Z,9.57
2023-03-31T03:14:38.453Z,9.55
2023-03-31T03:17:12.175Z,9.54
2023-03-31T03:19:41.017Z,9.53
2023-03-31T03:22:09.213Z,9.52
2023-03-31T03:24:35.925Z,9.51
2023-03-31T03:27:02.358Z,9.50
2023-03-31T03:29:28.855Z,9.49
2023-03-31T03:31:55.425Z,9.48
2023-03-31T03:34:21.831Z,9.48
2023-03-31T03:36:48.260Z,9.46
2023-03-31T03:39:14.771Z,9.46
2023-03-31T03:41:41.229Z,9.43
2023-03-31T03:44:07.660Z,9.44
2023-03-31T03:46:34.251Z,9.43
2023-03-31T03:49:00.868Z,9.43
2023-03-31T03:51:27.368Z,9.43
2023-03-31T03:53:53.792Z,9.41
2023-03-31T03:56:22.060Z,9.41
2023-03-31T03:58:48.559Z,9.41
2023-03-31T04:01:16.166Z,9.39
2023-03-31T04:03:42.638Z,9.36
2023-03-31T04:06:09.433Z,9.35
2023-03-31T04:08:36.938Z,9.33
2023-03-31T04:11:03.530Z,9.32
2023-03-31T04:13:30.212Z,9.29
2023-03-31T04:15:56.729Z,9.26
2023-03-31T04:18:23.398Z,9.24
2023-03-31T04:21:06.073Z,9.22
2023-03-31T04:23:34.627Z,9.22
2023-03-31T04:26:02.582Z,9.21
2023-03-31T04:28:34.627Z,9.21
2023-03-31T04:31:02.834Z,9.21
2023-03-31T04:33:29.570Z,9.20
2023-03-31T04:35:56.060Z,9.20
2023-03-31T04:38:24.054Z,9.20
2023-03-31T04:40:52.145Z,9.19
2023-03-31T04:43:20.331Z,9.20
2023-03-31T04:45:47.241Z,9.20
2023-03-31T04:48:13.735Z,9.20
2023-03-31T04:50:40.266Z,9.20
2023-03-31T04:53:07.143Z,9.20
2023-03-31T04:55:33.770Z,9.20
2023-03-31T04:58:00.558Z,9.23
2023-03-31T05:00:26.993Z,9.25
2023-03-31T05:02:53.564Z,9.26
2023-03-31T05:05:21.541Z,9.27
2023-03-31T05:07:48.003Z,9.27
2023-03-31T05:10:14.462Z,9.26
2023-03-31T05:12:41.035Z,9.26
2023-03-31T05:15:08.465Z,9.26
2023-03-31T05:17:36.431Z,9.26
2023-03-31T05:20:06.747Z,9.26
2023-03-31T05:22:38.448Z,9.27
2023-03-31T05:25:07.615Z,9.29
2023-03-31T05:27:37.740Z,9.27
2023-03-31T05:30:04.665Z,9.29
2023-03-31T05:32:31.115Z,9.31
2023-03-31T05:34:57.778Z,9.31
2023-03-31T05:37:25.337Z,9.31
2023-03-31T05:39:52.359Z,9.31
2023-03-31T05:42:19.914Z,9.33
2023-03-31T05:44:46.585Z,9.33
2023-03-31T05:47:13.723Z,9.32
2023-03-31T05:49:40.579Z,9.32
2023-03-31T05:52:08.422Z,9.33
2023-03-31T05:54:35.180Z,9.34
2023-03-31T05:57:01.638Z,9.34
2023-03-31T05:59:28.287Z,9.33
2023-03-31T06:01:54.867Z,9.35
2023-03-31T06:04:21.679Z,9.35
2023-03-31T06:06:50.159Z,9.38
2023-03-31T06:09:17.866Z,9.38
2023-03-31T06:11:44.428Z,9.39
2023-03-31T06:14:10.826Z,9.39
2023-03-31T06:16:37.424Z,9.41
2023-03-31T06:19:03.959Z,9.41
2023-03-31T06:21:30.550Z,9.42
2023-03-31T06:23:58.231Z,9.43
2023-03-31T06:26:24.699Z,9.46
2023-03-31T06:28:51.638Z,9.47
2023-03-31T06:31:20.670Z,9.49
2023-03-31T06:33:47.897Z,9.52
2023-03-31T06:36:17.077Z,9.55
2023-03-31T06:38:43.953Z,9.61
2023-03-31T06:41:13.201Z,9.66
2023-03-31T06:43:39.816Z,9.69
2023-03-31T06:46:07.100Z,9.68
2023-03-31T06:48:33.859Z,9.70
2023-03-31T06:51:02.324Z,9.70
2023-03-31T06:53:29.642Z,9.73
2023-03-31T06:55:56.228Z,9.75
2023-03-31T06:58:22.837Z,9.75
2023-03-31T07:00:49.545Z,9.77
2023-03-31T07:03:22.351Z,9.75
2023-03-31T07:05:50.970Z,9.77
2023-03-31T07:08:18.301Z,9.80
2023-03-31T07:10:48.749Z,9.83
2023-03-31T07:13:17.005Z,9.86
2023-03-31T07:15:44.148Z,9.85
2023-03-31T07:18:10.602Z,9.87
2023-03-31T07:20:38.036Z,9.89
2023-03-31T07:23:05.763Z,9.88
2023-03-31T07:25:32.425Z,9.88
2023-03-31T07:27:59.374Z,9.89
2023-03-31T07:30:26.197Z,9.89
2023-03-31T07:32:54.534Z,9.89
2023-03-31T07:35:22.961Z,9.89
2023-03-31T07:37:50.935Z,9.86
2023-03-31T07:40:23.544Z,9.90
2023-03-31T07:42:52.042Z,9.92
2023-03-31T07:45:20.680Z,9.93
2023-03-31T07:47:48.216Z,9.93
2023-03-31T07:50:15.803Z,9.95
2023-03-31T07:52:44.157Z,9.99
2023-03-31T07:55:12.323Z,10.03
2023-03-31T07:57:39.790Z,10.06
2023-03-31T08:00:09.478Z,10.03
2023-03-31T08:02:39.902Z,10.03
2023-03-31T08:05:07.198Z,10.00
2023-03-31T08:07:38.482Z,9.99
2023-03-31T08:10:07.795Z,10.04
2023-03-31T08:12:34.266Z,10.04
2023-03-31T08:15:01.233Z,10.06
2023-03-31T08:17:28.152Z,10.10
2023-03-31T08:19:54.835Z,10.19
2023-03-31T08:22:23.389Z,10.26
2023-03-31T08:24:50.244Z,10.37
2023-03-31T08:27:17.035Z,10.46
2023-03-31T08:29:43.611Z,10.48
2023-03-31T08:32:10.185Z,10.44
2023-03-31T08:34:38.011Z,10.39
2023-03-31T08:37:05.836Z,10.39
2023-03-31T08:39:32.644Z,10.38
2023-03-31T08:42:11.383Z,10.42
2023-03-31T08:44:58.451Z,10.45
2023-03-31T08:47:29.837Z,10.51
2023-03-31T08:50:03.086Z,10.57
2023-03-31T08:52:36.115Z,10.62
2023-03-31T08:55:10.548Z,10.70
2023-03-31T08:58:18.887Z,10.72
2023-03-31T09:01:02.025Z,10.80
2023-03-31T09:03:58.104Z,10.89
2023-03-31T09:06:41.305Z,10.93
2023-03-31T09:09:14.517Z,10.94
2023-03-31T09:11:51.140Z,10.93
2023-03-31T09:14:25.942Z,11.03
2023-03-31T09:17:03.279Z,11.08
2023-03-31T09:19:43.782Z,11.05
2023-03-31T09:22:18.491Z,11.11
2023-03-31T09:24:51.123Z,11.22
2023-03-31T09:27:20.195Z,11.29
2023-03-31T09:29:52.954Z,11.35
2023-03-31T09:32:29.552Z,11.42
2023-03-31T09:35:03.068Z,11.54
2023-03-31T09:37:33.184Z,11.60
2023-03-31T09:40:01.738Z,11.66
2023-03-31T09:42:28.325Z,11.67
2023-03-31T09:44:56.033Z,11.61
2023-03-31T09:47:32.066Z,11.56
2023-03-31T09:49:58.599Z,11.63
2023-03-31T09:52:31.169Z,11.73
2023-03-31T09:55:02.553Z,11.72
2023-03-31T09:57:39.272Z,11.72
2023-03-31T10:00:13.850Z,11.92
2023-03-31T10:02:49.168Z,11.96
2023-03-31T10:05:41.098Z,12.07
2023-03-31T10:08:16.456Z,12.21
2023-03-31T10:11:06.997Z,12.19
2023-03-31T10:13:50.291Z,12.28
2023-03-31T10:16:49.788Z,12.45
2023-03-31T10:19:32.527Z,12.57
2023-03-31T10:22:13.751Z,12.69
2023-03-31T10:24:44.023Z,12.76
2023-03-31T10:27:31.659Z,12.92
2023-03-31T10:30:00.753Z,12.99
2023-03-31T10:32:32.679Z,12.96
2023-03-31T10:35:06.360Z,12.92
2023-03-31T10:37:36.578Z,12.94
2023-03-31T10:40:13.056Z,13.09
2023-03-31T10:42:39.749Z,13.21
2023-03-31T10:45:37.182Z,13.14
2023-03-31T10:48:06.961Z,13.12
2023-03-31T10:50:36.185Z,13.02
2023-03-31T10:53:11.503Z,12.93
2023-03-31T10:55:56.724Z,12.89
2023-03-31T10:58:27.447Z,12.80
2023-03-31T11:01:09.904Z,12.75
2023-03-31T11:03:45.207Z,12.80
2023-03-31T11:06:39.224Z,12.89
2023-03-31T11:09:33.629Z,12.81
2023-03-31T11:12:17.047Z,12.76
2023-03-31T11:15:12.243Z,12.65
2023-03-31T11:18:00.000Z,12.77
2023-03-31T11:20:40.787Z,12.78
2023-03-31T11:23:32.949Z,12.76
2023-03-31T11:26:07.325Z,12.73
2023-03-31T11:28:47.220Z,12.72
2023-03-31T11:31:31.484Z,12.58
2023-03-31T11:34:19.297Z,12.52
2023-03-31T11:37:13.125Z,12.60
2023-03-31T11:40:01.047Z,12.64
2023-03-31T11:42:35.233Z,12.71
2023-03-31T11:45:15.965Z,12.82
2023-03-31T11:47:46.167Z,12.81
2023-03-31T11:50:19.440Z,12.79
2023-03-31T11:52:57.008Z,12.64
2023-03-31T11:55:27.362Z,12.48
2023-03-31T11:58:03.575Z,12.37
2023-03-31T12:00:35.494Z,12.31
2023-03-31T12:03:16.786Z,12.22
2023-03-31T12:05:48.027Z,12.19
2023-03-31T12:08:26.638Z,12.13
2023-03-31T12:11:04.920Z,12.07
2023-03-31T12:13:44.571Z,12.08
2023-03-31T12:16:29.769Z,12.12
2023-03-31T12:19:08.483Z,12.08
2023-03-31T12:21:38.297Z,12.05
2023-03-31T12:24:06.515Z,12.04
2023-03-31T12:26:52.785Z,11.90
2023-03-31T12:29:33.694Z,11.79
2023-03-31T12:32:05.882Z,11.78
2023-03-31T12:34:36.950Z,11.83
2023-03-31T12:37:29.600Z,11.79
2023-03-31T12:40:22.110Z,11.79
2023-03-31T12:43:07.460Z,11.73
2023-03-31T12:45:43.904Z,11.66
2023-03-31T12:48:44.652Z,11.69
2023-03-31T12:51:24.478Z,11.66
2023-03-31T12:54:28.412Z,11.63
2023-03-31T12:57:01.606Z,11.70
2023-03-31T12:59:35.557Z,11.81
2023-03-31T13:02:08.266Z,11.92
2023-03-31T13:04:36.919Z,11.97
2023-03-31T13:07:09.414Z,12.09
2023-03-31T13:09:43.312Z,12.08
2023-03-31T13:12:15.808Z,12.02
2023-03-31T13:14:45.500Z,12.00
2023-03-31T13:17:33.213Z,12.03
2023-03-31T13:20:46.470Z,12.14
2023-03-31T13:23:20.300Z,12.11
2023-03-31T13:25:54.289Z,12.02
2023-03-31T13:28:24.023Z,11.97
2023-03-31T13:30:56.409Z,11.87
2023-03-31T13:33:22.832Z,11.81
2023-03-31T13:36:26.955Z,11.90
2023-03-31T13:39:16.522Z,11.91
2023-03-31T13:42:13.336Z,11.95
2023-03-31T13:45:01.401Z,11.94
2023-03-31T13:47:44.832Z,11.99
2023-03-31T13:50:52.086Z,12.01
2023-03-31T13:53:43.397Z,12.09
2023-03-31T13:56:39.089Z,12.06
2023-03-31T13:59:27.125Z,12.00
2023-03-31T14:02:15.759Z,11.96
2023-03-31T14:05:01.746Z,11.94
2023-03-31T14:08:12.111Z,11.91
2023-03-31T14:10:41.221Z,11.83
2023-03-31T14:13:12.228Z,11.72
2023-03-31T14:15:43.678Z,11.70
2023-03-31T14:18:13.714Z,11.69
2023-03-31T14:20:59.798Z,11.76
2023-03-31T14:23:50.945Z,11.84
2023-03-31T14:26:20.461Z,11.94
2023-03-31T14:29:01.839Z,12.00
2023-03-31T14:31:47.336Z,11.99
2023-03-31T14:34:25.127Z,11.98
2023-03-31T14:37:04.698Z,11.95
2023-03-31T14:39:33.647Z,11.92
2023-03-31T14:42:04.236Z,11.88
2023-03-31T14:44:31.080Z,11.82
2023-03-31T14:47:00.615Z,11.72
2023-03-31T14:49:37.350Z,11.64
2023-03-31T14:52:14.438Z,11.54
2023-03-31T14:54:41.291Z,11.53
2023-03-31T14:57:07.880Z,11.55
2023-03-31T14:59:37.308Z,11.68
2023-03-31T15:02:05.429Z,11.74
2023-03-31T15:07:12.713Z,11.83
2023-03-31T15:09:41.207Z,11.82
2023-03-31T15:12:13.601Z,11.77
2023-03-31T15:14:47.912Z,11.77
2023-03-31T15:17:28.085Z,11.80
2023-03-31T15:19:59.822Z,11.79
2023-03-31T15:22:28.078Z,11.77
2023-03-31T15:24:55.310Z,11.65
2023-03-31T15:27:47.546Z,11.62
2023-03-31T15:30:21.524Z,11.55
2023-03-31T15:32:48.291Z,11.50
2023-03-31T15:35:27.832Z,11.45
2023-03-31T15:37:57.614Z,11.44
2023-03-31T15:40:28.263Z,11.45
2023-03-31T15:43:26.756Z,11.45
2023-03-31T15:45:55.729Z,11.39
2023-03-31T15:48:55.429Z,11.38
2023-03-31T15:51:30.997Z,11.35
2023-03-31T15:53:57.509Z,11.34
2023-03-31T15:56:33.724Z,11.24
2023-03-31T15:59:04.536Z,11.19
2023-03-31T16:01:35.561Z,11.17
2023-03-31T16:04:08.458Z,11.13
2023-03-31T16:06:43.911Z,11.18
2023-03-31T16:09:18.217Z,11.16
2023-03-31T16:11:52.021Z,11.13
2023-03-31T16:14:45.549Z,11.14
2023-03-31T16:17:21.124Z,11.01
2023-03-31T16:20:07.191Z,11.03
2023-03-31T16:22:43.638Z,11.05
2023-03-31T16:25:13.274Z,10.96
2023-03-31T16:27:43.420Z,10.91
2023-03-31T16:30:20.719Z,10.88
2023-03-31T16:33:11.206Z,10.84
2023-03-31T16:35:43.427Z,10.81
2023-03-31T16:38:12.013Z,10.81
2023-03-31T16:40:41.103Z,10.80
2023-03-31T16:43:14.729Z,10.71
2023-03-31T16:45:44.822Z,10.67
2023-03-31T16:48:16.166Z,10.61
2023-03-31T16:50:44.865Z,10.54
2023-03-31T16:53:13.430Z,10.55
2023-03-31T16:55:40.831Z,10.54
2023-03-31T16:58:07.629Z,10.47
2023-03-31T17:00:36.140Z,10.44
2023-03-31T17:03:04.862Z,10.42
2023-03-31T17:05:33.963Z,10.35
2023-03-31T17:08:01.037Z,10.32
2023-03-31T17:10:27.630Z,10.30
2023-03-31T17:12:54.186Z,10.27
2023-03-31T17:15:20.747Z,10.22
2023-03-31T17:17:47.769Z,10.19
2023-03-31T17:20:14.474Z,10.21
2023-03-31T17:22:41.592Z,10.20
2023-03-31T17:25:08.558Z,10.16
2023-03-31T17:27:35.463Z,10.16
2023-03-31T17:30:02.110Z,10.16
2023-03-31T17:32:29.687Z,10.11
2023-03-31T17:34:56.371Z,10.10
2023-03-31T17:37:23.018Z,10.08
2023-03-31T17:39:50.587Z,10.11
2023-03-31T17:42:19.045Z,10.13
2023-03-31T17:44:46.361Z,10.08
2023-03-31T17:47:13.348Z,10.06
2023-03-31T17:49:39.803Z,10.05
2023-03-31T17:52:06.279Z,10.03
2023-03-31T17:54:32.854Z,9.99
2023-03-31T17:56:59.847Z,9.99
2023-03-31T17:59:26.622Z,9.95
2023-03-31T18:01:53.202Z,9.94
2023-03-31T18:04:19.855Z,9.91
2023-03-31T18:06:48.384Z,9.88
2023-03-31T18:09:15.350Z,9.88
2023-03-31T18:11:41.810Z,9.88
2023-03-31T18:14:08.486Z,9.86
2023-03-31T18:16:35.862Z,9.88
2023-03-31T18:19:02.595Z,9.89
2023-03-31T18:21:29.113Z,9.88
2023-03-31T18:23:55.718Z,9.86
2023-03-31T18:26:24.438Z,9.86
2023-03-31T18:28:52.282Z,9.84
2023-03-31T18:31:19.250Z,9.85
2023-03-31T18:33:45.853Z,9.84
2023-03-31T18:36:18.604Z,9.85
2023-03-31T18:38:46.977Z,9.86
2023-03-31T18:41:14.424Z,9.86
2023-03-31T18:43:41.122Z,9.82
2023-03-31T18:46:07.868Z,9.82
2023-03-31T18:48:34.815Z,9.82
2023-03-31T18:51:01.748Z,9.79
2023-03-31T18:53:29.948Z,9.79
2023-03-31T18:55:58.680Z,9.79
2023-03-31T18:58:27.836Z,9.78
2023-03-31T19:00:54.633Z,9.74
2023-03-31T19:03:21.594Z,9.74
2023-03-31T19:05:48.630Z,9.72
2023-03-31T19:08:15.538Z,9.72
2023-03-31T19:10:42.056Z,9.73
2023-03-31T19:13:08.553Z,9.75
2023-03-31T19:15:37.063Z,9.71
2023-03-31T19:18:04.073Z,9.72
2023-03-31T19:20:30.495Z,9.67
2023-03-31T19:22:56.979Z,9.67
2023-03-31T19:25:24.129Z,9.65
2023-03-31T19:27:50.640Z,9.63
2023-03-31T19:30:21.090Z,9.61
2023-03-31T19:32:48.997Z,9.60
2023-03-31T19:35:17.588Z,9.61
2023-03-31T19:37:44.806Z,9.60
2023-03-31T19:40:11.825Z,9.61
2023-03-31T19:42:38.607Z,9.60
2023-03-31T19:45:08.163Z,9.61
2023-03-31T19:47:34.794Z,9.60
2023-03-31T19:50:01.836Z,9.56
2023-03-31T19:52:29.477Z,9.54
2023-03-31T19:54:56.046Z,9.56
2023-03-31T19:57:22.630Z,9.55
2023-03-31T19:59:49.152Z,9.55
2023-03-31T20:02:15.674Z,9.56
2023-03-31T20:04:42.678Z,9.53
2023-03-31T20:07:09.543Z,9.53
2023-03-31T20:09:36.305Z,9.54
2023-03-31T20:12:03.013Z,9.53
2023-03-31T20:14:29.597Z,9.52
2023-03-31T20:16:56.072Z,9.50
2023-03-31T20:19:23.233Z,9.51
2023-03-31T20:21:54.257Z,9.50
2023-03-31T20:24:21.409Z,9.50
2023-03-31T20:26:48.044Z,9.50
2023-03-31T20:29:14.631Z,9.50
2023-03-31T20:31:41.824Z,9.47
2023-03-31T20:34:14.976Z,9.48
2023-03-31T20:36:43.873Z,9.46
2023-03-31T20:39:12.769Z,9.48
2023-03-31T20:41:40.131Z,9.46
2023-03-31T20:44:10.290Z,9.45
2023-03-31T20:46:38.396Z,9.46
2023-03-31T20:49:07.076Z,9.46
2023-03-31T20:51:37.314Z,9.45
2023-03-31T20:54:04.841Z,9.45
2023-03-31T20:56:35.022Z,9.43
2023-03-31T20:59:01.999Z,9.42
2023-03-31T21:01:32.223Z,9.42
2023-03-31T21:04:01.079Z,9.40
2023-03-31T21:06:30.192Z,9.39
2023-03-31T21:08:57.472Z,9.40
2023-03-31T21:11:25.114Z,9.39
2023-03-31T21:13:52.986Z,9.41
2023-03-31T21:16:20.968Z,9.40
2023-03-31T21:18:47.841Z,9.40
2023-03-31T21:21:16.395Z,9.36
2023-03-31T21:23:42.923Z,9.39
2023-03-31T21:26:13.027Z,9.39
2023-03-31T21:28:39.520Z,9.47
2023-03-31T21:31:08.767Z,9.48
2023-03-31T21:33:37.869Z,9.43
2023-03-31T21:36:16.585Z,9.41
2023-03-31T21:38:44.575Z,9.41
2023-03-31T21:41:14.348Z,9.40
2023-03-31T21:43:40.933Z,9.39
2023-03-31T21:46:07.988Z,9.38
2023-03-31T21:48:35.361Z,9.36
2023-03-31T21:51:02.888Z,9.36
2023-03-31T21:53:30.981Z,9.34
2023-03-31T21:55:58.243Z,9.34
2023-03-31T21:58:28.281Z,9.34
2023-03-31T22:00:57.466Z,9.34
2023-03-31T22:03:27.496Z,9.33
2023-03-31T22:05:55.955Z,9.33
2023-03-31T22:08:22.715Z,9.34
2023-03-31T22:10:50.264Z,9.35
2023-03-31T22:13:16.744Z,9.35
2023-03-31T22:15:43.865Z,9.34
2023-03-31T22:18:11.923Z,9.34
2023-03-31T22:20:39.119Z,9.32
2023-03-31T22:23:06.838Z,9.33
2023-03-31T22:25:33.888Z,9.33
2023-03-31T22:28:01.250Z,9.32
2023-03-31T22:30:27.805Z,9.31
2023-03-31T22:32:55.020Z,9.30
2023-03-31T22:35:22.314Z,9.30
2023-03-31T22:37:48.825Z,9.33
2023-03-31T22:40:15.373Z,9.33
2023-03-31T22:42:42.794Z,9.32
2023-03-31T22:45:09.792Z,9.31
2023-03-31T22:47:36.262Z,9.31
2023-03-31T22:50:03.674Z,9.30
2023-03-31T22:52:30.237Z,9.31
2023-03-31T22:54:57.271Z,9.31
2023-03-31T22:57:24.019Z,9.31
2023-03-31T22:59:50.767Z,9.32
2023-03-31T23:02:17.303Z,9.29
2023-03-31T23:04:43.714Z,9.28
2023-03-31T23:07:10.517Z,9.29
2023-03-31T23:09:37.150Z,9.28
2023-03-31T23:12:03.725Z,9.31
2023-03-31T23:14:30.184Z,9.30
2023-03-31T23:16:57.023Z,9.27
2023-03-31T23:19:24.178Z,9.28
2023-03-31T23:21:51.372Z,9.28
2023-03-31T23:24:19.705Z,9.28
2023-03-31T23:26:46.571Z,9.27
2023-03-31T23:29:13.150Z,9.28
2023-03-31T23:31:39.841Z,9.26
2023-03-31T23:34:07.244Z,9.27
2023-03-31T23:36:33.773Z,9.26
2023-03-31T23:39:00.199Z,9.27
2023-03-31T23:41:27.041Z,9.27
2023-03-31T23:43:54.596Z,9.28
2023-03-31T23:46:21.718Z,9.30
2023-03-31T23:48:48.628Z,9.31
2023-03-31T23:51:15.391Z,9.31
2023-03-31T23:53:41.901Z,9.30
2023-03-31T23:56:12.070Z,9.31
2023-03-31T23:58:39.235Z,9.32
